Terminal Aerodrome Forecast
Issued by NWS Topeka, KS

Home | Current Version | Previous Version | Graphics & Text | Print | Product List | Glossary On
Versions: 1 2 3 4 5 6 7 8 9 10 11 12 13 14 15 16 17 18 19 20 21 22
138
FTUS43 KTOP 190520
TAFTOP
TAF
KTOP 190520Z 1906/2006 11004KT P6SM SCT060
     FM191400 15009KT P6SM FEW150
     FM191900 16014G21KT P6SM FEW060 SCT150=

USA.gov is the U.S. government's official web portal to all federal, state and local government web resources and services.